Time;durP1;ratioP1;P1;durP2;ratioP2;P2;SDS_P1;SDS_P2;PMS_P1;PMS_P2;Temp;Humidity;BMP_temperature;BMP_pressure;BME280_temperature;BME280_humidity;BME280_pressure;Samples;Min_cycle;Max_cycle;Signal;HPM_P1;HPM_P2
2023/01/23 00:01:36;;;;;;;18.08;8.40;;;;;;;-2.01;78.45;101608.00;7349617;19;20026;-68
2023/01/23 00:04:02;;;;;;;12.93;7.55;;;;;;;-1.97;78.32;101605.44;7345925;19;20022;-67
2023/01/23 00:06:27;;;;;;;13.75;6.95;;;;;;;-1.95;78.29;101605.47;7341122;19;20093;-67
2023/01/23 00:08:52;;;;;;;11.73;6.55;;;;;;;-2.05;78.27;101612.34;7339681;19;20046;-65
2023/01/23 00:11:20;;;;;;;14.48;8.07;;;;;;;-2.07;78.27;101605.31;7338314;19;20480;-68
2023/01/23 00:13:45;;;;;;;11.52;6.30;;;;;;;-2.08;78.32;101609.69;7340072;19;20010;-66
2023/01/23 00:16:16;;;;;;;13.32;8.13;;;;;;;-2.04;78.51;101608.88;7340987;19;20086;-68
2023/01/23 00:18:41;;;;;;;21.27;9.30;;;;;;;-2.04;78.40;101603.63;7340463;19;20170;-66
2023/01/23 00:21:09;;;;;;;15.85;8.57;;;;;;;-2.00;78.26;101604.53;7340628;19;20040;-67
2023/01/23 00:23:34;;;;;;;19.20;9.73;;;;;;;-1.95;78.28;101608.97;7341080;19;20049;-67
2023/01/23 00:26:07;;;;;;;24.35;9.35;;;;;;;-2.01;78.32;101605.38;7342912;19;20041;-67
2023/01/23 00:28:32;;;;;;;15.48;9.35;;;;;;;-2.07;78.34;101603.59;7342617;19;20066;-68
2023/01/23 00:31:12;;;;;;;19.38;9.55;;;;;;;-2.01;78.63;101598.41;7342175;19;20025;-66
2023/01/23 00:33:41;;;;;;;16.67;9.43;;;;;;;-2.07;78.56;101614.03;7348090;19;20460;-71
2023/01/23 00:36:06;;;;;;;21.13;8.93;;;;;;;-2.05;78.61;101604.50;7351021;19;20006;-71
2023/01/23 00:38:31;;;;;;;20.67;9.98;;;;;;;-1.98;78.40;101618.50;7347673;19;20014;-66
2023/01/23 00:40:56;;;;;;;23.65;11.18;;;;;;;-1.90;78.40;101611.59;7350854;19;20010;-68
2023/01/23 00:43:22;;;;;;;23.10;11.88;;;;;;;-1.89;78.48;101621.19;7346641;19;20045;-67
2023/01/23 00:45:47;;;;;;;21.98;11.82;;;;;;;-1.95;78.37;101614.19;7350047;19;20048;-65
2023/01/23 00:48:12;;;;;;;26.00;11.85;;;;;;;-2.07;78.60;101618.41;7346772;19;20006;-67
2023/01/23 00:50:36;;;;;;;23.95;11.65;;;;;;;-2.23;78.84;101620.81;7349560;19;20078;-65
2023/01/23 00:53:01;;;;;;;25.83;12.30;;;;;;;-2.25;79.31;101616.44;7349117;19;20330;-65
2023/01/23 00:55:25;;;;;;;24.02;11.68;;;;;;;-2.22;79.55;101619.97;7351153;19;20009;-71
2023/01/23 00:57:50;;;;;;;23.52;11.25;;;;;;;-2.15;79.52;101622.66;7349817;19;20011;-69
2023/01/23 01:00:15;;;;;;;27.13;12.98;;;;;;;-2.14;79.73;101616.59;7347144;19;20010;-69
2023/01/23 01:02:40;;;;;;;23.55;11.02;;;;;;;-2.07;79.64;101627.13;7347561;19;20073;-66
2023/01/23 01:05:05;;;;;;;24.83;12.65;;;;;;;-2.06;79.69;101626.25;7348882;19;20027;-66
2023/01/23 01:07:30;;;;;;;22.85;11.65;;;;;;;-2.00;79.60;101626.31;7348748;19;20011;-67
2023/01/23 01:09:55;;;;;;;30.00;13.70;;;;;;;-1.97;79.57;101631.56;7348515;19;20011;-68
2023/01/23 01:12:19;;;;;;;22.58;11.70;;;;;;;-1.95;79.41;101635.09;7346578;19;20018;-69
2023/01/23 01:14:44;;;;;;;26.30;13.02;;;;;;;-1.98;79.42;101635.06;7348359;19;20046;-68
2023/01/23 01:17:09;;;;;;;27.55;13.18;;;;;;;-1.90;79.25;101643.84;7346035;19;20078;-67
2023/01/23 01:19:33;;;;;;;28.48;12.57;;;;;;;-2.09;79.38;101641.00;7347017;19;20021;-69
2023/01/23 01:21:58;;;;;;;29.33;13.18;;;;;;;-2.23;79.75;101628.66;7349047;19;20484;-69
2023/01/23 01:24:23;;;;;;;24.63;11.50;;;;;;;-2.18;79.85;101641.78;7349490;19;20444;-70
2023/01/23 01:26:48;;;;;;;32.63;15.10;;;;;;;-2.17;79.72;101637.44;7345312;19;20485;-67
2023/01/23 01:29:13;;;;;;;28.35;14.18;;;;;;;-2.22;79.90;101645.22;7345854;19;20461;-70
2023/01/23 01:31:41;;;;;;;31.15;13.75;;;;;;;-2.19;79.84;101637.41;7349469;19;20022;-69
2023/01/23 01:34:05;;;;;;;32.80;13.70;;;;;;;-2.28;79.88;101639.91;7357830;19;20057;-68
2023/01/23 01:36:30;;;;;;;29.40;12.98;;;;;;;-2.30;80.10;101636.41;7348676;19;20105;-68
2023/01/23 01:38:55;;;;;;;24.13;10.52;;;;;;;-2.23;80.17;101638.22;7347017;19;20454;-69
2023/01/23 01:41:19;;;;;;;24.85;12.00;;;;;;;-2.25;79.87;101639.94;7350526;19;20041;-69
2023/01/23 01:43:44;;;;;;;30.23;14.05;;;;;;;-2.34;80.00;101634.59;7347737;19;20438;-67
2023/01/23 01:46:22;;;;;;;31.00;13.90;;;;;;;-2.39;80.26;101633.69;7348100;19;20066;-69
2023/01/23 01:48:55;;;;;;;36.03;14.93;;;;;;;-2.41;80.14;101643.22;7348611;19;20030;-70
2023/01/23 01:51:26;;;;;;;29.00;13.27;;;;;;;-2.46;80.33;101639.66;7353576;19;20021;-68
2023/01/23 01:54:05;;;;;;;30.63;13.60;;;;;;;-2.42;80.64;101642.34;7347493;19;20015;-69
2023/01/23 01:56:34;;;;;;;29.85;12.50;;;;;;;-2.44;80.64;101635.34;7345976;19;20011;-68
2023/01/23 01:59:00;;;;;;;22.98;10.70;;;;;;;-2.39;80.62;101641.53;7346335;19;20019;-68
2023/01/23 02:01:25;;;;;;;30.35;13.88;;;;;;;-2.34;80.34;101632.88;7347322;19;20018;-68
2023/01/23 02:03:52;;;;;;;29.90;13.05;;;;;;;-2.46;80.41;101639.66;7342269;19;20019;-71
2023/01/23 02:06:17;;;;;;;32.25;13.57;;;;;;;-2.53;80.62;101636.09;7343681;19;20007;-69
2023/01/23 02:09:00;;;;;;;29.30;12.95;;;;;;;-2.47;80.93;101638.78;7345465;19;20022;-69
2023/01/23 02:11:25;;;;;;;28.48;13.73;;;;;;;-2.46;81.01;101643.16;7347103;19;20002;-69
2023/01/23 02:13:54;;;;;;;31.48;13.68;;;;;;;-2.39;81.13;101634.56;7344525;19;20021;-68
2023/01/23 02:16:25;;;;;;;30.08;12.13;;;;;;;-2.30;80.81;101649.47;7345541;19;20011;-69
2023/01/23 02:18:53;;;;;;;27.63;13.77;;;;;;;-2.28;80.85;101635.56;7348133;19;20131;-70
2023/01/23 02:21:23;;;;;;;30.13;14.82;;;;;;;-2.26;80.52;101643.44;7344754;19;20007;-67
2023/01/23 02:24:03;;;;;;;26.00;12.57;;;;;;;-2.31;80.68;101639.88;7342644;19;20023;-72
2023/01/23 02:26:37;;;;;;;27.80;12.13;;;;;;;-2.29;80.62;101641.66;7346119;19;20018;-71
2023/01/23 02:29:04;;;;;;;24.37;12.23;;;;;;;-2.45;80.57;101641.41;7346638;19;20800;-70
2023/01/23 02:31:36;;;;;;;28.80;12.82;;;;;;;-2.47;80.76;101633.56;7345394;19;20003;-70
2023/01/23 02:34:03;;;;;;;27.75;11.75;;;;;;;-2.45;80.87;101630.97;7343620;19;20015;-70
2023/01/23 02:36:32;;;;;;;25.30;10.73;;;;;;;-2.37;80.92;101631.97;7344843;19;20026;-68
2023/01/23 02:39:02;;;;;;;22.52;11.23;;;;;;;-2.36;80.41;101631.09;7342501;19;20018;-70
2023/01/23 02:41:39;;;;;;;20.70;9.13;;;;;;;-2.41;80.41;101633.66;7345014;19;20010;-69
2023/01/23 02:44:26;;;;;;;22.83;10.65;;;;;;;-2.40;80.21;101626.69;7342055;19;20022;-68
2023/01/23 02:46:56;;;;;;;23.70;10.82;;;;;;;-2.44;80.37;101632.72;7345524;19;20019;-75
2023/01/23 02:49:23;;;;;;;23.55;11.63;;;;;;;-2.51;80.18;101629.19;7343737;19;20018;-70
2023/01/23 02:51:49;;;;;;;22.80;9.15;;;;;;;-2.47;80.03;101635.28;7345724;19;20027;-66
2023/01/23 02:54:15;;;;;;;28.25;12.85;;;;;;;-2.50;79.90;101632.66;7342318;19;20014;-67
2023/01/23 02:56:43;;;;;;;25.80;11.50;;;;;;;-2.62;80.00;101636.00;7343400;19;20502;-66
2023/01/23 03:01:52;;;;;;;29.95;11.63;;;;;;;-2.60;80.27;101643.00;7344627;19;20006;-70
2023/01/23 03:04:17;;;;;;;36.13;13.13;;;;;;;-2.54;80.21;101642.19;7342727;19;20460;-68
2023/01/23 03:06:41;;;;;;;32.05;14.88;;;;;;;-2.43;80.25;101639.72;7345410;19;20346;-69
2023/01/23 03:09:09;;;;;;;35.58;14.77;;;;;;;-2.52;80.18;101644.81;7343949;19;20010;-70
2023/01/23 03:11:37;;;;;;;42.88;16.77;;;;;;;-2.57;80.19;101644.75;7344970;19;20323;-72
2023/01/23 03:14:06;;;;;;;44.55;20.85;;;;;;;-2.69;79.93;101648.06;7347634;19;20782;-69
2023/01/23 03:16:33;;;;;;;33.88;15.52;;;;;;;-2.72;79.92;101648.03;7343148;19;20086;-68
2023/01/23 03:19:03;;;;;;;41.15;18.30;;;;;;;-2.61;80.23;101645.56;7344985;19;20342;-67
2023/01/23 03:21:28;;;;;;;41.55;17.98;;;;;;;-2.79;80.06;101640.94;7345725;19;20032;-69
2023/01/23 03:23:53;;;;;;;32.78;14.90;;;;;;;-2.72;80.36;101640.22;7341420;19;20011;-70
2023/01/23 03:26:18;;;;;;;33.70;15.02;;;;;;;-2.64;80.47;101641.19;7343474;19;20348;-70
2023/01/23 03:31:27;;;;;;;29.75;14.35;;;;;;;-2.58;80.38;101651.69;7343804;19;20010;-69
2023/01/23 03:33:52;;;;;;;35.78;12.20;;;;;;;-2.58;80.02;101646.47;7344048;19;20019;-70
2023/01/23 03:36:17;;;;;;;30.70;12.65;;;;;;;-2.66;80.17;101661.16;7343979;19;20014;-75
2023/01/23 03:41:23;;;;;;;27.23;12.85;;;;;;;-2.76;80.41;101640.13;7343841;19;20014;-74
2023/01/23 03:41:27;;;;;;;;;;;;;;;-2.65;80.29;101641.16;7346737;19;20504;-74
2023/01/23 03:43:57;;;;;;;30.02;11.95;;;;;;;-2.76;80.56;101643.63;7342481;19;20356;-74
2023/01/23 03:46:23;;;;;;;22.30;11.43;;;;;;;-2.75;80.54;101649.72;7344925;19;20414;-74
2023/01/23 03:48:47;;;;;;;28.65;11.50;;;;;;;-2.76;80.63;101635.78;7343223;19;20025;-69
2023/01/23 03:51:12;;;;;;;24.67;11.23;;;;;;;-2.71;80.79;101641.94;7345053;19;20464;-70
2023/01/23 03:53:37;;;;;;;25.45;11.60;;;;;;;-2.63;80.81;101639.44;7343316;19;20022;-68
2023/01/23 03:56:03;;;;;;;33.10;12.82;;;;;;;-2.54;80.87;101649.13;7341314;19;20114;-68
2023/01/23 03:58:29;;;;;;;20.60;8.95;;;;;;;-2.53;80.45;101636.09;7342793;19;20035;-75
2023/01/23 04:00:54;;;;;;;20.88;8.85;;;;;;;-2.66;79.69;101645.50;7342291;19;20466;-71
2023/01/23 04:03:19;;;;;;;14.57;8.10;;;;;;;-2.79;79.47;101650.50;7342287;19;20591;-70
2023/01/23 04:05:44;;;;;;;16.38;9.20;;;;;;;-2.72;79.63;101639.31;7343143;19;20026;-72
2023/01/23 04:08:09;;;;;;;11.95;6.65;;;;;;;-2.66;79.39;101648.13;7349960;19;20014;-70
2023/01/23 04:10:35;;;;;;;11.13;6.95;;;;;;;-2.59;79.66;101652.56;7353131;19;20014;-70
2023/01/23 04:13:10;;;;;;;17.65;8.10;;;;;;;-2.49;79.78;101650.09;7353316;19;20326;-72
2023/01/23 04:15:36;;;;;;;15.60;8.25;;;;;;;-2.50;79.94;101656.16;7356987;19;20014;-70
2023/01/23 04:18:03;;;;;;;15.30;7.07;;;;;;;-2.54;80.01;101659.59;7359016;19;20007;-72
2023/01/23 04:20:28;;;;;;;12.75;7.47;;;;;;;-2.53;80.19;101656.13;7353941;19;20018;-69
2023/01/23 04:22:55;;;;;;;13.68;7.38;;;;;;;-2.47;80.03;101653.56;7348162;19;20453;-69
2023/01/23 04:25:21;;;;;;;15.18;6.85;;;;;;;-2.47;79.75;101650.97;7348877;19;20019;-70
2023/01/23 04:27:45;;;;;;;12.95;7.53;;;;;;;-2.57;79.91;101660.41;7350326;19;20014;-71
2023/01/23 04:30:11;;;;;;;14.18;7.65;;;;;;;-2.60;79.88;101656.03;7350858;19;20017;-77
2023/01/23 04:32:35;;;;;;;13.63;6.97;;;;;;;-2.50;80.02;101654.44;7351179;19;20014;-73
2023/01/23 04:35:00;;;;;;;13.10;6.75;;;;;;;-2.49;79.65;101653.59;7350128;19;20021;-73
2023/01/23 04:37:28;;;;;;;13.77;6.65;;;;;;;-2.60;79.73;101653.44;7347890;19;20020;-72
2023/01/23 04:39:53;;;;;;;12.90;7.65;;;;;;;-2.63;79.88;101656.00;7350839;19;20082;-72
2023/01/23 04:42:17;;;;;;;18.05;7.25;;;;;;;-2.65;80.14;101652.47;7348812;19;20683;-71
2023/01/23 04:44:52;;;;;;;8.95;4.93;;;;;;;-2.58;80.20;101658.66;7348807;19;20014;-69
2023/01/23 04:47:31;;;;;;;13.55;7.43;;;;;;;-2.59;80.04;101664.72;7348949;19;20022;-69
2023/01/23 04:49:56;;;;;;;11.77;5.85;;;;;;;-2.63;79.99;101666.44;7348971;19;20011;-69
2023/01/23 04:52:21;;;;;;;13.55;8.05;;;;;;;-2.61;79.88;101671.69;7347146;19;20014;-69
2023/01/23 04:54:53;;;;;;;15.60;8.45;;;;;;;-2.53;80.09;101680.50;7350161;19;20038;-68
2023/01/23 04:57:18;;;;;;;15.35;6.20;;;;;;;-2.38;79.92;101674.63;7349529;19;20018;-69
2023/01/23 04:59:43;;;;;;;14.93;7.88;;;;;;;-2.48;79.83;101685.78;7348177;19;20348;-69
2023/01/23 05:02:08;;;;;;;15.55;9.13;;;;;;;-2.53;79.91;101677.88;7348384;19;20367;-70
2023/01/23 05:04:38;;;;;;;13.35;7.55;;;;;;;-2.63;80.08;101683.84;7347245;19;20433;-68
2023/01/23 05:07:03;;;;;;;8.95;4.60;;;;;;;-2.54;80.06;101680.47;7348346;19;20472;-69
2023/01/23 05:09:33;;;;;;;11.88;6.72;;;;;;;-2.63;79.94;101681.22;7346072;19;20056;-69
2023/01/23 05:11:57;;;;;;;14.55;7.80;;;;;;;-2.58;79.90;101676.94;7352727;19;20078;-68
2023/01/23 05:14:24;;;;;;;16.60;8.32;;;;;;;-2.70;79.91;101681.97;7353357;19;20007;-68
2023/01/23 05:16:49;;;;;;;13.95;7.25;;;;;;;-2.65;80.20;101685.53;7350250;19;20018;-69
2023/01/23 05:19:27;;;;;;;14.65;9.25;;;;;;;-2.65;79.99;101699.47;7350391;19;20007;-69
2023/01/23 05:21:54;;;;;;;16.60;8.77;;;;;;;-2.69;80.03;101695.03;7348767;19;20021;-68
2023/01/23 05:24:20;;;;;;;15.98;8.75;;;;;;;-2.66;79.98;101694.22;7349325;19;20003;-68
2023/01/23 05:26:44;;;;;;;12.57;6.95;;;;;;;-2.78;80.23;101700.13;7349908;19;20015;-68
2023/01/23 05:29:09;;;;;;;13.35;6.18;;;;;;;-2.66;80.00;101712.50;7346953;19;20018;-69
2023/01/23 05:31:42;;;;;;;12.68;6.93;;;;;;;-2.68;79.99;101704.63;7348714;19;20011;-70
2023/01/23 05:34:32;;;;;;;13.98;6.28;;;;;;;-2.64;79.94;101701.22;7345294;19;20049;-71
2023/01/23 05:37:00;;;;;;;13.55;7.20;;;;;;;-2.65;79.65;101714.25;7343176;19;20017;-69
2023/01/23 05:39:26;;;;;;;15.80;7.85;;;;;;;-2.81;79.88;101725.31;7342155;19;20199;-68
2023/01/23 05:41:51;;;;;;;13.05;7.30;;;;;;;-2.85;79.97;101705.25;7345821;19;20461;-69
2023/01/23 05:44:40;;;;;;;11.65;6.47;;;;;;;-2.82;80.04;101713.97;7344443;19;20022;-69
2023/01/23 05:47:15;;;;;;;13.35;7.60;;;;;;;-2.86;80.06;101721.75;7343661;19;20014;-69
2023/01/23 05:49:40;;;;;;;8.25;3.92;;;;;;;-2.78;80.31;101722.75;7344137;19;20011;-69
2023/01/23 05:52:05;;;;;;;13.50;7.15;;;;;;;-2.83;80.10;101721.81;7345639;19;20034;-69
2023/01/23 05:54:31;;;;;;;15.20;7.60;;;;;;;-2.86;80.09;101725.25;7343263;19;20039;-68
2023/01/23 05:56:56;;;;;;;12.48;7.35;;;;;;;-2.83;80.06;101721.81;7346199;19;20022;-68
2023/01/23 05:59:39;;;;;;;14.63;7.78;;;;;;;-2.88;80.18;101728.66;7343854;19;20025;-69
2023/01/23 06:02:29;;;;;;;12.60;6.22;;;;;;;-2.83;80.18;101725.31;7345629;19;20022;-68
2023/01/23 06:05:23;;;;;;;16.23;7.57;;;;;;;-2.73;79.64;101734.16;7345260;19;20488;-69
2023/01/23 06:07:58;;;;;;;11.55;6.88;;;;;;;-2.79;79.44;101744.47;7343800;19;20106;-67
2023/01/23 06:10:23;;;;;;;8.93;5.15;;;;;;;-2.73;79.06;101747.22;7344622;19;20019;-68
2023/01/23 06:12:48;;;;;;;14.00;7.47;;;;;;;-3.01;79.35;101738.91;7344124;19;20349;-68
2023/01/23 06:15:13;;;;;;;12.80;6.10;;;;;;;-3.04;79.50;101743.19;7346893;19;20480;-69
2023/01/23 06:17:38;;;;;;;15.48;8.20;;;;;;;-3.13;79.87;101738.69;7349370;19;20038;-71
2023/01/23 06:20:03;;;;;;;9.20;5.53;;;;;;;-2.88;79.97;101741.72;7347528;19;20022;-69
2023/01/23 06:22:29;;;;;;;17.08;10.15;;;;;;;-2.98;79.29;101730.25;7347231;19;20022;-68
2023/01/23 06:25:00;;;;;;;14.65;8.57;;;;;;;-2.96;79.21;101736.38;7347262;19;20053;-69
2023/01/23 06:27:24;;;;;;;14.77;6.30;;;;;;;-3.06;79.28;101744.91;7344766;19;20010;-68
2023/01/23 06:29:50;;;;;;;13.25;7.15;;;;;;;-3.22;79.65;101748.97;7345502;19;20346;-67
2023/01/23 06:32:14;;;;;;;14.10;7.35;;;;;;;-3.22;79.92;101755.91;7346705;19;20013;-69
2023/01/23 06:34:40;;;;;;;13.05;6.57;;;;;;;-3.13;79.82;101745.63;7346546;19;20011;-69
2023/01/23 06:37:05;;;;;;;11.68;6.97;;;;;;;-3.17;79.92;101749.06;7343555;19;20014;-70
2023/01/23 06:39:30;;;;;;;13.57;7.60;;;;;;;-3.22;80.00;101742.88;7345076;19;20319;-69
2023/01/23 06:41:56;;;;;;;12.38;6.65;;;;;;;-3.23;80.25;101746.31;7345944;19;20031;-68
2023/01/23 06:44:22;;;;;;;15.43;7.60;;;;;;;-3.12;80.02;101761.31;7343998;19;20006;-68
2023/01/23 06:46:47;;;;;;;11.27;4.65;;;;;;;-3.06;80.04;101751.00;7352241;19;20032;-68
2023/01/23 06:49:11;;;;;;;11.15;5.00;;;;;;;-3.06;79.84;101760.56;7347383;19;20015;-70
2023/01/23 06:51:36;;;;;;;10.63;5.95;;;;;;;-3.11;80.00;101767.41;7348108;19;20338;-70
2023/01/23 06:54:03;;;;;;;12.35;6.45;;;;;;;-3.06;79.60;101764.06;7344960;19;20015;-70
2023/01/23 06:56:29;;;;;;;9.90;5.90;;;;;;;-3.08;79.21;101764.88;7348346;19;20465;-70
2023/01/23 06:58:53;;;;;;;8.88;4.80;;;;;;;-3.07;79.00;101772.72;7349910;19;20480;-69
2023/01/23 07:01:25;;;;;;;12.80;6.50;;;;;;;-3.31;79.13;101757.50;7344377;19;20010;-70
2023/01/23 07:04:08;;;;;;;13.98;6.85;;;;;;;-3.45;79.79;101745.94;7346623;19;20093;-69
2023/01/23 07:06:33;;;;;;;12.02;7.82;;;;;;;-3.38;80.32;101746.91;7344757;19;20027;-68
2023/01/23 07:08:58;;;;;;;11.55;7.28;;;;;;;-3.24;80.77;101755.00;7348119;19;20022;-72
2023/01/23 07:11:23;;;;;;;14.63;7.47;;;;;;;-3.17;80.62;101747.34;7344592;19;20383;-73
2023/01/23 07:13:48;;;;;;;12.65;6.80;;;;;;;-3.06;80.49;101777.09;7347406;19;20350;-72
2023/01/23 07:16:13;;;;;;;14.18;7.60;;;;;;;-3.03;80.44;101771.91;7342737;19;20062;-72
2023/01/23 07:18:38;;;;;;;17.00;7.82;;;;;;;-3.00;80.64;101763.25;7346490;19;20002;-72
2023/01/23 07:21:06;;;;;;;16.55;7.72;;;;;;;-2.90;80.47;101762.56;7347463;19;20025;-72
2023/01/23 07:23:31;;;;;;;15.30;7.40;;;;;;;-2.96;80.36;101765.09;7343364;19;20006;-72
2023/01/23 07:26:02;;;;;;;19.40;8.15;;;;;;;-3.04;80.05;101749.28;7345071;19;20344;-73
2023/01/23 07:28:26;;;;;;;16.80;8.82;;;;;;;-3.14;79.87;101762.13;7346435;19;20014;-71
2023/01/23 07:30:51;;;;;;;20.85;9.88;;;;;;;-3.10;80.08;101758.75;7342944;19;20010;-70
2023/01/23 07:33:16;;;;;;;15.60;8.48;;;;;;;-3.00;79.98;101768.50;7345760;19;20469;-72
2023/01/23 07:35:40;;;;;;;13.70;7.38;;;;;;;-3.03;80.01;101768.41;7342065;19;20343;-71
2023/01/23 07:38:05;;;;;;;19.63;8.77;;;;;;;-3.00;80.00;101764.16;7344254;19;20014;-71
2023/01/23 07:40:30;;;;;;;14.93;7.35;;;;;;;-2.95;80.26;101764.25;7341853;19;20032;-69
2023/01/23 07:42:55;;;;;;;22.55;9.35;;;;;;;-3.04;80.11;101766.66;7344234;19;20025;-71
2023/01/23 07:45:20;;;;;;;18.20;9.27;;;;;;;-3.08;80.35;101767.47;7345808;19;20081;-73
2023/01/23 07:47:44;;;;;;;17.55;10.43;;;;;;;-3.16;80.02;101761.25;7343871;19;20047;-72
2023/01/23 07:50:11;;;;;;;22.52;11.50;;;;;;;-3.24;79.61;101770.66;7344478;19;20014;-71
2023/01/23 07:52:37;;;;;;;15.00;8.18;;;;;;;-3.22;79.83;101764.63;7343101;19;20037;-71
2023/01/23 07:55:02;;;;;;;18.23;10.23;;;;;;;-3.24;79.75;101765.44;7343183;19;20018;-73
2023/01/23 07:57:28;;;;;;;17.77;7.90;;;;;;;-3.08;80.19;101768.38;7342489;19;20018;-73
2023/01/23 07:59:52;;;;;;;22.50;9.48;;;;;;;-3.10;80.13;101761.34;7344040;19;20007;-73
2023/01/23 08:02:17;;;;;;;17.40;10.18;;;;;;;-3.06;79.91;101771.00;7344919;19;20014;-72
2023/01/23 08:04:42;;;;;;;17.52;9.20;;;;;;;-3.03;79.76;101771.03;7343601;19;20094;-72
2023/01/23 08:07:06;;;;;;;18.30;9.20;;;;;;;-2.94;79.85;101766.88;7343412;19;20483;-72
2023/01/23 08:09:31;;;;;;;17.50;8.13;;;;;;;-2.93;80.01;101767.72;7342432;19;20041;-73
2023/01/23 08:11:56;;;;;;;15.68;8.23;;;;;;;-2.86;80.21;101777.44;7349632;19;20015;-73
2023/01/23 08:14:20;;;;;;;17.63;8.77;;;;;;;-2.92;79.98;101785.16;7348624;19;20108;-74
2023/01/23 08:16:51;;;;;;;17.92;8.23;;;;;;;-2.87;80.06;101770.47;7344285;19;20022;-74
2023/01/23 08:19:16;;;;;;;20.75;8.88;;;;;;;-2.84;79.94;101770.53;7345887;19;20018;-75
2023/01/23 08:21:41;;;;;;;14.60;9.15;;;;;;;-3.03;79.50;101779.75;7343663;19;20014;-74
2023/01/23 08:24:06;;;;;;;16.70;8.38;;;;;;;-2.92;79.80;101769.50;7340519;19;20021;-70
2023/01/23 08:26:32;;;;;;;18.50;10.20;;;;;;;-3.10;79.74;101774.41;7349332;19;20022;-71
2023/01/23 08:28:57;;;;;;;18.00;9.00;;;;;;;-3.10;79.66;101777.00;7346951;19;20018;-70
2023/01/23 08:31:21;;;;;;;21.00;8.68;;;;;;;-3.14;79.38;101778.66;7343257;19;20010;-69
2023/01/23 08:33:46;;;;;;;18.77;9.55;;;;;;;-3.11;79.42;101772.63;7342980;19;20471;-71
2023/01/23 08:36:12;;;;;;;16.45;8.45;;;;;;;-3.10;79.49;101774.41;7344501;19;20018;-70
2023/01/23 08:38:37;;;;;;;15.32;8.07;;;;;;;-3.18;79.39;101776.00;7345007;19;20045;-71
2023/01/23 08:41:03;;;;;;;17.77;8.63;;;;;;;-3.12;79.21;101773.47;7347575;19;20022;-70
2023/01/23 08:43:28;;;;;;;14.85;8.52;;;;;;;-3.24;79.11;101776.75;7346029;19;20429;-69
2023/01/23 08:45:55;;;;;;;16.08;9.35;;;;;;;-3.13;79.26;101785.66;7342659;19;20014;-71
2023/01/23 08:48:22;;;;;;;16.75;8.13;;;;;;;-3.27;79.33;101784.50;7344298;19;20018;-70
2023/01/23 08:50:47;;;;;;;16.60;7.93;;;;;;;-3.32;79.65;101787.03;7340436;19;20007;-71
2023/01/23 08:53:12;;;;;;;19.33;9.65;;;;;;;-3.30;79.57;101787.97;7344053;19;20010;-69
2023/01/23 08:55:37;;;;;;;20.25;10.98;;;;;;;-3.38;79.28;101789.50;7352176;19;20056;-73
2023/01/23 08:58:02;;;;;;;16.75;8.90;;;;;;;-3.33;79.45;101793.09;7350483;19;20070;-71
2023/01/23 09:00:27;;;;;;;17.00;8.63;;;;;;;-3.15;79.56;101784.72;7351271;19;20009;-71
2023/01/23 09:02:52;;;;;;;17.98;9.88;;;;;;;-3.27;79.33;101783.66;7348847;19;20014;-70
2023/01/23 09:05:16;;;;;;;13.60;6.35;;;;;;;-3.08;79.09;101785.75;7350417;19;20015;-75
2023/01/23 09:07:41;;;;;;;15.20;8.45;;;;;;;-3.07;78.92;101792.72;7352612;19;20023;-73
2023/01/23 09:10:06;;;;;;;9.13;5.22;;;;;;;-3.01;78.51;101787.59;7353375;19;20022;-75
2023/01/23 09:12:31;;;;;;;13.63;7.38;;;;;;;-3.40;78.63;101793.84;7352719;19;20014;-74
2023/01/23 09:14:56;;;;;;;16.15;6.97;;;;;;;-3.40;78.83;101790.38;7349489;19;20033;-74
2023/01/23 09:17:20;;;;;;;17.60;8.90;;;;;;;-3.41;78.82;101783.38;7349116;19;20025;-73
2023/01/23 09:19:45;;;;;;;9.88;5.80;;;;;;;-3.32;78.93;101788.78;7348704;19;20807;-74
2023/01/23 09:22:09;;;;;;;15.90;8.98;;;;;;;-3.32;78.64;101783.56;7350165;19;20011;-73
2023/01/23 09:24:34;;;;;;;21.40;12.65;;;;;;;-3.65;78.78;101783.78;7351637;19;20010;-73
2023/01/23 09:26:59;;;;;;;17.92;9.80;;;;;;;-3.61;78.96;101784.72;7355561;19;20022;-75
2023/01/23 09:29:23;;;;;;;18.75;9.77;;;;;;;-3.53;79.05;101777.94;7353830;19;20018;-74
2023/01/23 09:31:48;;;;;;;14.27;8.15;;;;;;;-3.48;79.10;101771.06;7351499;19;20014;-74
2023/01/23 09:34:13;;;;;;;16.17;8.77;;;;;;;-3.44;79.40;101762.47;7349234;19;20346;-74
2023/01/23 09:36:37;;;;;;;21.73;11.63;;;;;;;-3.41;79.31;101762.53;7351251;19;21432;-73
2023/01/23 09:39:02;;;;;;;15.63;7.80;;;;;;;-3.17;79.15;101760.38;7347549;19;20034;-73
2023/01/23 09:41:28;;;;;;;22.45;11.07;;;;;;;-3.41;79.08;101754.69;7349861;19;20334;-73
2023/01/23 09:44:00;;;;;;;21.40;10.68;;;;;;;-3.34;79.25;101769.59;7346455;19;20540;-71
2023/01/23 09:46:31;;;;;;;24.58;10.85;;;;;;;-3.17;78.95;101756.88;7347717;19;20024;-71
2023/01/23 09:49:14;;;;;;;21.58;9.40;;;;;;;-3.06;79.21;101753.63;7347501;19;20023;-69
2023/01/23 09:51:59;;;;;;;22.50;11.68;;;;;;;-3.05;79.22;101757.09;7350973;19;20039;-71
2023/01/23 09:54:45;;;;;;;20.27;9.43;;;;;;;-2.89;78.96;101759.09;7355558;19;20018;-72
2023/01/23 09:57:13;;;;;;;24.10;12.38;;;;;;;-2.96;78.59;101754.66;7351947;19;20453;-71
2023/01/23 09:59:48;;;;;;;22.48;9.88;;;;;;;-2.83;78.38;101754.00;7345998;19;20082;-70
2023/01/23 10:02:21;;;;;;;21.02;10.75;;;;;;;-2.97;78.38;101745.06;7348039;19;20010;-71
2023/01/23 10:04:51;;;;;;;21.00;9.73;;;;;;;-2.89;78.16;101747.78;7348104;19;20010;-71
2023/01/23 10:07:25;;;;;;;21.88;10.95;;;;;;;-2.81;77.85;101748.78;7349489;19;20077;-70
2023/01/23 10:09:55;;;;;;;22.58;11.38;;;;;;;-2.73;77.43;101748.09;7345921;19;20460;-71
2023/01/23 10:12:41;;;;;;;22.65;10.80;;;;;;;-2.62;77.44;101754.34;7349268;19;20014;-72
2023/01/23 10:15:13;;;;;;;29.55;14.88;;;;;;;-2.65;77.18;101756.91;7348565;19;20024;-72
2023/01/23 10:17:43;;;;;;;23.23;11.27;;;;;;;-2.59;77.37;101749.16;7349516;19;20329;-73
2023/01/23 10:20:32;;;;;;;22.42;11.55;;;;;;;-2.62;77.26;101751.75;7347963;19;20654;-74
2023/01/23 10:23:22;;;;;;;25.90;10.25;;;;;;;-2.44;77.15;101747.63;7348313;19;20021;-73
2023/01/23 10:25:48;;;;;;;23.60;12.82;;;;;;;-2.59;77.29;101738.72;7348508;19;20465;-76
2023/01/23 10:28:34;;;;;;;22.55;12.50;;;;;;;-2.39;77.26;101746.00;7348126;19;20037;-74
2023/01/23 10:31:02;;;;;;;32.58;13.00;;;;;;;-2.29;76.63;101747.88;7347514;19;20018;-74
2023/01/23 10:33:40;;;;;;;26.00;13.07;;;;;;;-2.49;75.57;101749.31;7348821;19;20028;-74
2023/01/23 10:36:43;;;;;;;18.27;9.07;;;;;;;-2.24;76.12;101747.06;7347229;19;20036;-72
2023/01/23 10:39:31;;;;;;;24.08;13.23;;;;;;;-2.40;75.61;101759.91;7345629;19;20026;-73
2023/01/23 10:41:56;;;;;;;26.27;12.27;;;;;;;-2.46;74.98;101742.38;7347444;19;20007;-73
2023/01/23 10:44:21;;;;;;;27.58;14.10;;;;;;;-2.53;74.18;101739.69;7342208;19;20003;-74
2023/01/23 10:46:58;;;;;;;24.40;12.85;;;;;;;-2.32;75.25;101732.16;7345129;19;20082;-73
2023/01/23 10:49:35;;;;;;;19.88;10.20;;;;;;;-2.16;75.53;101735.88;7346163;19;20501;-73
2023/01/23 10:52:00;;;;;;;25.17;12.63;;;;;;;-2.38;74.94;101735.56;7347096;19;20010;-73
2023/01/23 10:54:29;;;;;;;24.92;11.95;;;;;;;-2.29;75.17;101747.88;7345182;19;20081;-74
2023/01/23 10:56:57;;;;;;;29.00;13.43;;;;;;;-2.30;75.14;101739.16;7352053;19;20029;-76
2023/01/23 10:59:36;;;;;;;26.23;10.55;;;;;;;-2.32;74.88;101737.38;7349171;19;20011;-75
2023/01/23 11:02:19;;;;;;;30.27;15.15;;;;;;;-2.37;74.64;101731.22;7347139;19;20371;-75
2023/01/23 11:04:47;;;;;;;13.60;5.03;;;;;;;-2.29;74.94;101721.75;7347199;19;20025;-73
2023/01/23 11:07:21;;;;;;;24.15;11.50;;;;;;;-2.24;74.72;101740.97;7345404;19;20019;-73
2023/01/23 11:09:57;;;;;;;;;;;;;;;-2.24;74.82;101727.91;7348455;19;20014;-72
2023/01/23 11:12:22;;;;;;;;;;;;;;;-2.36;74.49;101726.00;7345228;19;19922;-68
2023/01/23 11:14:47;;;;;;;25.67;11.25;;;;;;;-2.37;74.46;101731.22;7345921;19;19931;-73
2023/01/23 11:17:24;;;;;;;24.73;12.80;;;;;;;-2.26;74.64;101729.66;7346256;19;20010;-73
2023/01/23 11:19:53;;;;;;;27.02;13.32;;;;;;;-2.19;74.82;101728.84;7345064;19;20342;-72
2023/01/23 11:22:38;;;;;;;27.35;12.57;;;;;;;-2.34;74.74;101726.91;7346075;19;20014;-71
2023/01/23 11:25:23;;;;;;;;;;;;;;;-2.22;74.93;101724.47;7346523;19;20021;-71